• 1
  • 2
  • 1

 

 

 
NEU! ab. 1.4.
Nortel Info 128,740 MHz

WebCam

  
Kamera Halle
Kamera Vorfeld
Wetter EDDS

METAR

EDDS 231550Z 02004KT 330V070 9999 FEW038TCU SCT110 22/13 Q1016 NOSIG =


TAF

EDDS 231100Z 2312/2412 03005KT 9999 FEW035 PROB30 TEMPO 2312/2403 4000 TSRA BKN020CB PROB30 TEMPO 2320/2408 1000 BCFG BKN002 TEMPO 2403/2412 2000 TSRA BKN015CB =


SR/SS

03:30 / 19:05 UTC
(EDSO 23-05-2018)